Time;durP1;ratioP1;P1;durP2;ratioP2;P2;SDS_P1;SDS_P2;PMS_P1;PMS_P2;Temp;Humidity;BMP_temperature;BMP_pressure;BME280_temperature;BME280_humidity;BME280_pressure;Samples;Min_cycle;Max_cycle;Signal;HPM_P1;HPM_P2
2022/09/26 00:00:32;;;;;;;7.95;3.00;;;7.70;99.90;;;;;;5059639;28;20077;-46
2022/09/26 00:02:58;;;;;;;3.97;3.08;;;7.70;99.90;;;;;;5066188;28;20020;-46
2022/09/26 00:05:24;;;;;;;4.60;2.90;;;7.70;99.90;;;;;;5059168;28;20054;-44
2022/09/26 00:07:49;;;;;;;5.78;2.92;;;7.70;99.90;;;;;;5058904;28;20196;-47
2022/09/26 00:10:15;;;;;;;4.18;2.90;;;7.70;99.90;;;;;;5064691;28;20064;-44
2022/09/26 00:12:40;;;;;;;10.18;3.03;;;7.70;99.90;;;;;;5058520;28;20036;-44
2022/09/26 00:15:06;;;;;;;5.32;2.95;;;7.70;99.90;;;;;;5062649;28;20036;-44
2022/09/26 00:17:32;;;;;;;7.40;2.50;;;7.70;99.90;;;;;;5058485;28;20025;-45
2022/09/26 00:19:57;;;;;;;3.72;2.30;;;7.70;99.90;;;;;;5040291;28;20032;-46
2022/09/26 00:22:23;;;;;;;3.78;2.80;;;7.70;99.90;;;;;;5043792;28;20167;-44
2022/09/26 00:24:48;;;;;;;5.07;2.60;;;7.70;99.90;;;;;;5062124;28;20037;-45
2022/09/26 00:27:14;;;;;;;4.50;2.70;;;7.70;99.90;;;;;;5058735;28;20029;-49
2022/09/26 00:29:40;;;;;;;6.00;2.30;;;7.70;99.90;;;;;;5058834;28;20462;-44
2022/09/26 00:32:05;;;;;;;6.05;2.67;;;7.70;99.90;;;;;;5043211;28;20033;-47
2022/09/26 00:34:31;;;;;;;7.82;3.13;;;7.70;99.90;;;;;;5062230;28;20399;-46
2022/09/26 00:36:57;;;;;;;7.05;3.10;;;7.70;99.90;;;;;;5057862;28;20439;-44
2022/09/26 00:39:22;;;;;;;3.33;2.50;;;7.70;99.90;;;;;;5059708;28;20104;-44
2022/09/26 00:41:48;;;;;;;5.28;2.35;;;7.70;99.90;;;;;;5058255;28;20443;-44
2022/09/26 00:44:44;;;;;;;3.60;2.72;;;7.70;99.90;;;;;;5062087;28;20498;-44
2022/09/26 00:47:35;;;;;;;3.90;2.42;;;7.80;99.90;;;;;;5061555;28;20048;-44
2022/09/26 00:50:06;;;;;;;3.83;2.10;;;7.70;99.90;;;;;;5059981;28;20103;-44
2022/09/26 00:52:37;;;;;;;2.70;1.75;;;7.70;99.90;;;;;;5057809;28;20040;-44
2022/09/26 00:55:06;;;;;;;7.63;2.50;;;7.70;99.90;;;;;;5064450;28;20025;-44
2022/09/26 00:57:38;;;;;;;4.03;2.17;;;7.70;99.90;;;;;;5060380;28;20116;-44
2022/09/26 01:00:08;;;;;;;6.78;3.63;;;7.70;99.90;;;;;;5065720;28;20397;-44
2022/09/26 01:02:34;;;;;;;3.88;2.13;;;7.70;99.90;;;;;;5057583;28;20029;-44
2022/09/26 01:05:02;;;;;;;10.10;2.50;;;7.70;99.90;;;;;;5059611;28;20197;-44
2022/09/26 01:07:28;;;;;;;2.85;2.00;;;7.70;99.90;;;;;;5061479;28;20033;-44
2022/09/26 01:09:54;;;;;;;3.75;2.22;;;7.70;99.90;;;;;;5058241;28;20504;-43
2022/09/26 01:12:20;;;;;;;3.08;2.30;;;7.70;99.90;;;;;;5063295;28;20036;-47
2022/09/26 01:14:49;;;;;;;3.22;2.10;;;7.70;99.90;;;;;;5057900;28;20063;-46
2022/09/26 01:17:16;;;;;;;2.70;2.05;;;7.70;99.90;;;;;;5051538;28;20045;-44
2022/09/26 01:20:13;;;;;;;5.53;2.42;;;7.70;99.90;;;;;;5058192;28;20466;-45
2022/09/26 01:22:57;;;;;;;6.28;2.17;;;7.70;99.90;;;;;;5226849;22;20060;-51
2022/09/26 01:25:28;;;;;;;2.47;1.95;;;7.70;99.90;;;;;;5049624;28;20032;-50
2022/09/26 01:27:59;;;;;;;2.95;1.83;;;7.70;99.90;;;;;;5059788;28;20021;-50
2022/09/26 01:30:32;;;;;;;6.40;2.80;;;7.70;99.90;;;;;;5061546;28;20021;-51
2022/09/26 01:33:17;;;;;;;3.25;2.33;;;7.70;99.90;;;;;;5060110;28;20024;-51
2022/09/26 01:36:17;;;;;;;3.60;1.75;;;7.70;99.90;;;;;;5063384;28;20115;-51
2022/09/26 01:39:06;;;;;;;7.47;2.13;;;7.80;99.90;;;;;;5053855;28;20484;-50
2022/09/26 01:42:03;;;;;;;3.80;2.00;;;7.80;99.90;;;;;;5032130;28;20132;-49
2022/09/26 01:44:59;;;;;;;3.42;2.28;;;7.80;99.90;;;;;;5051342;28;20028;-51
2022/09/26 01:47:41;;;;;;;6.22;2.80;;;7.80;99.90;;;;;;5053755;28;20073;-51
2022/09/26 01:50:20;;;;;;;7.22;2.25;;;7.90;99.90;;;;;;5058912;28;20111;-50
2022/09/26 01:53:06;;;;;;;5.22;2.53;;;7.90;99.90;;;;;;5063617;28;20028;-50
2022/09/26 01:55:47;;;;;;;7.28;2.85;;;7.90;99.90;;;;;;5056409;28;20018;-50
2022/09/26 01:58:40;;;;;;;8.57;3.22;;;7.90;99.90;;;;;;5064655;28;20040;-50
2022/09/26 02:01:10;;;;;;;5.53;3.30;;;8.00;99.90;;;;;;5058750;28;20036;-51
2022/09/26 02:03:38;;;;;;;7.20;2.88;;;7.90;99.90;;;;;;5044320;28;20108;-52
2022/09/26 02:06:13;;;;;;;5.95;2.50;;;7.90;99.90;;;;;;5062279;28;20040;-50
2022/09/26 02:08:47;;;;;;;5.82;2.60;;;7.90;99.90;;;;;;5060352;28;20036;-50
2022/09/26 02:11:16;;;;;;;3.58;2.13;;;7.90;99.90;;;;;;5060957;28;20024;-51
2022/09/26 02:14:05;;;;;;;2.90;2.17;;;7.90;99.90;;;;;;5060747;28;20025;-49
2022/09/26 02:16:36;;;;;;;5.82;3.00;;;8.00;99.90;;;;;;5053137;28;20124;-50
2022/09/26 02:19:12;;;;;;;8.15;2.35;;;8.00;99.90;;;;;;5060553;28;20063;-53
2022/09/26 02:21:39;;;;;;;4.35;2.90;;;7.90;99.90;;;;;;5063572;28;20044;-50
2022/09/26 02:24:05;;;;;;;3.78;2.42;;;8.00;99.90;;;;;;5063470;28;20045;-50
2022/09/26 02:26:32;;;;;;;5.07;2.33;;;8.00;99.90;;;;;;5065736;28;20033;-51
2022/09/26 02:28:58;;;;;;;4.25;2.72;;;8.00;99.90;;;;;;5063522;28;20394;-55
2022/09/26 02:31:26;;;;;;;8.70;2.67;;;8.00;99.90;;;;;;5060251;28;20021;-50
2022/09/26 02:33:52;;;;;;;6.35;2.47;;;8.00;99.90;;;;;;5061721;28;20025;-50
2022/09/26 02:36:19;;;;;;;4.80;2.25;;;8.10;99.90;;;;;;5067147;28;20017;-49
2022/09/26 02:38:45;;;;;;;4.68;2.33;;;8.10;99.90;;;;;;5061118;28;20017;-50
2022/09/26 02:41:23;;;;;;;3.33;2.28;;;8.10;99.90;;;;;;5067488;28;20378;-52
2022/09/26 02:44:23;;;;;;;3.53;2.65;;;8.10;99.90;;;;;;5057693;28;20507;-49
2022/09/26 02:47:19;;;;;;;3.08;2.10;;;8.10;99.90;;;;;;5029244;28;20514;-52
2022/09/26 02:50:12;;;;;;;4.47;2.67;;;8.10;99.90;;;;;;5064750;28;20162;-49
2022/09/26 02:53:13;;;;;;;4.82;2.40;;;8.10;99.90;;;;;;5060566;28;20036;-51
2022/09/26 02:55:46;;;;;;;3.50;2.60;;;8.10;99.90;;;;;;5060782;28;20028;-52
2022/09/26 02:58:26;;;;;;;3.95;2.22;;;8.20;99.90;;;;;;5068492;28;20096;-51
2022/09/26 03:01:02;;;;;;;2.60;2.25;;;8.10;99.90;;;;;;5058402;28;20021;-50
2022/09/26 03:03:50;;;;;;;8.35;3.20;;;8.20;99.90;;;;;;5066746;28;20029;-50
2022/09/26 03:06:21;;;;;;;4.68;2.33;;;8.10;99.90;;;;;;5059145;28;20020;-50
2022/09/26 03:08:48;;;;;;;2.60;2.33;;;8.20;99.90;;;;;;5062325;28;20035;-49
2022/09/26 03:11:19;;;;;;;5.80;2.70;;;8.20;99.90;;;;;;5051280;28;20021;-50
2022/09/26 03:13:46;;;;;;;3.47;2.78;;;8.20;99.90;;;;;;5063172;28;20042;-49
2022/09/26 03:16:13;;;;;;;5.07;2.92;;;8.20;99.90;;;;;;5068251;28;20027;-49
2022/09/26 03:18:54;;;;;;;5.63;3.28;;;8.20;99.90;;;;;;5064007;28;20056;-49
2022/09/26 03:21:20;;;;;;;6.13;3.08;;;8.20;99.90;;;;;;5049824;28;20025;-58
2022/09/26 03:23:45;;;;;;;4.93;2.50;;;8.20;99.90;;;;;;5063110;28;20392;-50
2022/09/26 03:26:16;;;;;;;6.03;2.80;;;8.20;99.90;;;;;;5061982;28;20030;-50
2022/09/26 03:28:41;;;;;;;6.68;2.75;;;8.30;99.90;;;;;;5067868;28;20033;-49
2022/09/26 03:31:07;;;;;;;7.90;2.92;;;8.30;99.90;;;;;;5066020;28;20544;-50
2022/09/26 03:33:33;;;;;;;4.72;2.55;;;8.30;99.90;;;;;;5059986;28;20025;-49
2022/09/26 03:35:59;;;;;;;3.80;2.53;;;8.30;99.90;;;;;;5066703;28;20150;-51
2022/09/26 03:38:25;;;;;;;4.43;2.53;;;8.30;99.90;;;;;;5060178;28;20188;-50
2022/09/26 03:40:52;;;;;;;4.82;2.30;;;8.40;99.90;;;;;;5049443;28;20025;-51
2022/09/26 03:43:18;;;;;;;6.07;2.92;;;8.40;99.90;;;;;;5059641;28;20031;-51
2022/09/26 03:45:43;;;;;;;6.78;3.10;;;8.40;99.90;;;;;;5067535;28;20513;-49
2022/09/26 03:48:09;;;;;;;5.38;2.28;;;8.50;99.90;;;;;;5060726;28;20028;-49
2022/09/26 03:50:34;;;;;;;3.70;2.55;;;8.50;99.90;;;;;;5059915;28;20020;-50
2022/09/26 03:53:01;;;;;;;5.00;3.00;;;8.50;99.90;;;;;;5065946;28;20031;-49
2022/09/26 03:55:27;;;;;;;4.43;2.40;;;8.50;99.90;;;;;;5059885;28;20491;-50
2022/09/26 03:57:52;;;;;;;9.57;2.42;;;8.50;99.90;;;;;;5067034;28;20098;-50
2022/09/26 04:00:18;;;;;;;5.75;2.88;;;8.60;99.90;;;;;;5059595;28;20047;-49
2022/09/26 04:02:43;;;;;;;4.07;2.40;;;8.50;99.90;;;;;;5066847;28;20079;-51
2022/09/26 04:05:09;;;;;;;6.57;3.15;;;8.50;99.90;;;;;;5060507;28;20036;-49
2022/09/26 04:07:34;;;;;;;2.72;2.25;;;8.60;99.90;;;;;;5059301;28;20505;-49
2022/09/26 04:10:00;;;;;;;6.75;2.58;;;8.60;99.90;;;;;;5066003;28;20024;-53
2022/09/26 04:12:26;;;;;;;3.85;2.60;;;8.60;99.90;;;;;;5059311;28;20082;-49
2022/09/26 04:14:53;;;;;;;3.83;2.70;;;8.60;99.90;;;;;;5066148;28;20070;-49
2022/09/26 04:17:18;;;;;;;6.60;2.92;;;8.60;99.90;;;;;;5059277;28;20435;-50
2022/09/26 04:19:44;;;;;;;4.00;3.15;;;8.60;99.90;;;;;;5066793;28;20048;-50
2022/09/26 04:22:10;;;;;;;5.65;2.55;;;8.60;99.90;;;;;;5059239;28;20013;-52
2022/09/26 04:24:35;;;;;;;3.38;3.08;;;8.70;99.90;;;;;;5058908;28;20040;-49
2022/09/26 04:27:01;;;;;;;4.47;3.25;;;8.70;99.90;;;;;;5065576;28;20471;-51
2022/09/26 04:29:27;;;;;;;4.80;3.00;;;8.70;99.90;;;;;;5058939;28;20380;-49
2022/09/26 04:31:53;;;;;;;4.32;2.72;;;8.70;99.90;;;;;;5056941;28;20017;-48
2022/09/26 04:34:23;;;;;;;3.50;3.20;;;8.70;99.90;;;;;;5062618;28;20096;-49
2022/09/26 04:36:50;;;;;;;4.65;3.47;;;8.70;99.90;;;;;;5060462;28;20048;-51
2022/09/26 04:39:16;;;;;;;4.95;3.55;;;8.70;99.90;;;;;;5062715;28;20008;-48
2022/09/26 04:41:42;;;;;;;5.78;3.00;;;8.80;99.90;;;;;;5061550;28;20395;-48
2022/09/26 04:44:09;;;;;;;5.68;3.10;;;8.80;99.90;;;;;;5061219;28;20108;-49
2022/09/26 04:46:35;;;;;;;4.82;3.25;;;8.80;99.90;;;;;;5063995;28;20463;-48
2022/09/26 04:49:01;;;;;;;6.07;2.80;;;8.80;99.90;;;;;;5060727;28;20017;-49
2022/09/26 04:51:28;;;;;;;4.47;2.95;;;8.80;99.90;;;;;;5062219;28;20459;-49
2022/09/26 04:53:55;;;;;;;8.38;3.17;;;8.80;99.90;;;;;;5059931;28;20017;-48
2022/09/26 04:56:22;;;;;;;8.20;3.22;;;8.80;99.90;;;;;;5062243;28;20096;-50
2022/09/26 04:58:48;;;;;;;4.07;3.05;;;8.80;99.90;;;;;;5061217;28;20530;-49
2022/09/26 05:01:16;;;;;;;4.78;3.10;;;8.80;99.90;;;;;;5048134;28;20117;-48
2022/09/26 05:03:43;;;;;;;4.50;3.08;;;8.80;99.90;;;;;;5062523;28;20035;-48
2022/09/26 05:06:09;;;;;;;4.90;3.20;;;8.80;99.90;;;;;;5061284;28;20017;-49
2022/09/26 05:08:36;;;;;;;7.45;3.03;;;8.80;99.90;;;;;;5062028;28;20490;-54
2022/09/26 05:11:02;;;;;;;3.67;2.95;;;8.80;99.90;;;;;;5060351;28;20092;-49
2022/09/26 05:13:29;;;;;;;3.60;3.08;;;8.80;99.90;;;;;;5056538;28;20044;-49
2022/09/26 05:15:57;;;;;;;3.75;3.45;;;8.80;99.90;;;;;;5059273;28;20021;-48
2022/09/26 05:18:23;;;;;;;5.72;3.22;;;8.80;99.90;;;;;;5057500;28;20017;-49
2022/09/26 05:20:49;;;;;;;6.32;3.15;;;8.80;99.90;;;;;;5058442;28;20444;-49
2022/09/26 05:26:18;;;;;;;11.00;3.57;;;8.80;99.90;;;;;;5059947;28;20032;-50
2022/09/26 05:28:48;;;;;;;5.82;3.05;;;8.80;99.90;;;;;;5061743;28;20032;-49
2022/09/26 05:31:15;;;;;;;3.95;2.80;;;8.80;99.90;;;;;;5051687;28;20394;-49
2022/09/26 05:33:41;;;;;;;4.70;3.08;;;8.90;99.90;;;;;;5058274;28;20375;-49
2022/09/26 05:36:07;;;;;;;8.23;4.00;;;8.90;99.90;;;;;;5064312;28;20016;-50
2022/09/26 05:38:33;;;;;;;5.90;2.90;;;8.90;99.90;;;;;;5058038;28;20080;-48
2022/09/26 05:40:59;;;;;;;5.63;3.03;;;9.00;99.90;;;;;;5064941;28;20025;-48
2022/09/26 05:43:27;;;;;;;4.93;3.13;;;9.00;99.90;;;;;;5057895;28;20474;-49
2022/09/26 05:46:04;;;;;;;3.50;3.20;;;9.00;99.90;;;;;;5065831;28;20082;-50
2022/09/26 05:48:31;;;;;;;4.78;3.03;;;9.00;99.90;;;;;;5057964;28;20029;-50
2022/09/26 05:51:06;;;;;;;4.03;2.85;;;9.00;99.90;;;;;;5059777;28;20029;-48
2022/09/26 05:53:32;;;;;;;3.87;3.00;;;9.00;99.90;;;;;;5061676;28;20025;-48
2022/09/26 05:55:58;;;;;;;9.95;2.67;;;9.00;99.90;;;;;;5041372;28;20025;-50
2022/09/26 05:58:31;;;;;;;4.45;3.20;;;9.00;99.90;;;;;;5059831;28;20033;-49
2022/09/26 06:01:03;;;;;;;2.83;2.60;;;9.00;99.90;;;;;;5058862;28;20393;-49
2022/09/26 06:03:33;;;;;;;6.22;2.75;;;9.10;99.90;;;;;;5063388;28;20033;-52
2022/09/26 06:06:05;;;;;;;4.18;2.38;;;9.10;99.90;;;;;;5058801;28;20013;-49
2022/09/26 06:08:31;;;;;;;5.35;3.10;;;9.10;99.90;;;;;;5061450;28;20108;-51
2022/09/26 06:11:02;;;;;;;4.32;3.05;;;9.10;99.90;;;;;;5059122;28;20031;-49
2022/09/26 06:13:27;;;;;;;5.00;3.00;;;9.10;99.90;;;;;;5061001;28;20584;-51
2022/09/26 06:15:53;;;;;;;3.20;2.47;;;9.10;99.90;;;;;;5059910;28;20092;-49
2022/09/26 06:18:19;;;;;;;5.65;2.85;;;9.10;99.90;;;;;;5061173;28;20055;-50
2022/09/26 06:20:45;;;;;;;4.32;2.85;;;9.20;99.90;;;;;;5061343;28;20112;-49
2022/09/26 06:23:11;;;;;;;9.77;3.00;;;9.20;99.90;;;;;;5060145;28;20029;-49
2022/09/26 06:25:37;;;;;;;7.38;3.17;;;9.20;99.90;;;;;;5060868;28;20071;-50
2022/09/26 06:28:02;;;;;;;3.38;2.72;;;9.30;99.90;;;;;;5059529;28;20021;-49
2022/09/26 06:30:28;;;;;;;5.78;2.40;;;9.30;99.90;;;;;;5060593;28;20024;-49
2022/09/26 06:32:54;;;;;;;5.22;3.22;;;9.40;99.90;;;;;;5059233;28;20024;-51
2022/09/26 06:35:20;;;;;;;3.95;3.10;;;9.40;99.90;;;;;;5050795;28;20033;-49
2022/09/26 06:37:47;;;;;;;4.40;2.70;;;9.50;99.90;;;;;;5058457;28;20096;-52
2022/09/26 06:40:13;;;;;;;4.07;2.78;;;9.50;99.90;;;;;;5065428;28;20096;-50
2022/09/26 06:42:39;;;;;;;4.45;3.30;;;9.60;99.90;;;;;;5060131;28;20037;-52
2022/09/26 06:45:09;;;;;;;4.93;2.40;;;9.60;99.90;;;;;;5059954;28;20493;-50
2022/09/26 06:47:35;;;;;;;4.63;2.95;;;9.70;99.90;;;;;;5061256;28;20039;-49
2022/09/26 06:50:01;;;;;;;5.15;2.97;;;9.70;99.90;;;;;;5059087;28;20036;-53
2022/09/26 06:52:33;;;;;;;4.38;2.97;;;9.80;99.90;;;;;;5060506;28;20482;-50
2022/09/26 06:55:00;;;;;;;3.30;3.00;;;9.80;99.90;;;;;;5059419;28;20482;-48
2022/09/26 06:57:26;;;;;;;7.10;3.58;;;9.80;99.90;;;;;;5061723;28;20024;-49
2022/09/26 06:59:52;;;;;;;6.03;2.78;;;9.90;99.90;;;;;;5060316;28;20022;-50
2022/09/26 07:02:18;;;;;;;6.35;3.30;;;9.90;99.90;;;;;;5061078;28;20088;-52
2022/09/26 07:04:43;;;;;;;5.00;3.17;;;10.00;99.90;;;;;;5061256;28;20016;-50
2022/09/26 07:07:09;;;;;;;7.90;3.45;;;10.00;99.90;;;;;;5059267;28;20379;-52
2022/09/26 07:09:34;;;;;;;4.75;3.05;;;10.10;99.90;;;;;;5065882;28;20025;-49
2022/09/26 07:12:00;;;;;;;6.65;2.80;;;10.10;99.90;;;;;;5062448;28;20029;-53
2022/09/26 07:14:26;;;;;;;5.93;2.88;;;10.10;99.90;;;;;;5065190;28;20028;-51
2022/09/26 07:16:52;;;;;;;3.63;2.75;;;10.10;99.90;;;;;;5063921;28;20025;-48
2022/09/26 07:19:18;;;;;;;7.35;2.92;;;10.10;99.90;;;;;;5060830;28;20021;-49
2022/09/26 07:21:45;;;;;;;5.53;3.10;;;10.20;99.90;;;;;;5065926;28;20027;-50
2022/09/26 07:24:13;;;;;;;3.50;2.58;;;10.20;99.90;;;;;;5060888;28;20031;-49
2022/09/26 07:26:42;;;;;;;7.97;3.10;;;10.20;99.90;;;;;;5066291;28;20051;-49
2022/09/26 07:29:08;;;;;;;4.63;2.80;;;10.20;99.90;;;;;;5061580;28;20283;-51
2022/09/26 07:31:34;;;;;;;6.50;2.95;;;10.20;99.90;;;;;;5066058;28;20513;-49
2022/09/26 07:33:59;;;;;;;3.35;3.05;;;10.30;99.90;;;;;;5062498;28;20029;-49
2022/09/26 07:36:25;;;;;;;4.78;3.03;;;10.30;99.90;;;;;;5060524;28;20021;-48
2022/09/26 07:38:50;;;;;;;3.83;2.60;;;10.40;99.90;;;;;;5066779;28;20020;-48
2022/09/26 07:41:16;;;;;;;4.72;3.47;;;10.40;99.90;;;;;;5060050;28;20017;-52
2022/09/26 07:43:42;;;;;;;3.08;2.78;;;10.40;99.90;;;;;;5067117;28;20044;-51
2022/09/26 07:51:37;;;;;;;2.58;2.35;;;10.50;99.90;;;;;;5063219;28;20068;-48
2022/09/26 07:54:03;;;;;;;2.83;2.47;;;10.50;99.90;;;;;;5062014;28;20032;-50
2022/09/26 07:56:32;;;;;;;5.03;2.50;;;10.50;99.90;;;;;;5065158;28;20029;-49
2022/09/26 07:59:02;;;;;;;9.43;3.63;;;10.50;99.90;;;;;;5061268;28;20094;-49
2022/09/26 08:01:28;;;;;;;7.30;2.97;;;10.60;99.90;;;;;;5066000;28;20021;-50
2022/09/26 08:03:56;;;;;;;3.97;3.20;;;10.60;99.90;;;;;;5060385;28;20028;-51
2022/09/26 08:06:22;;;;;;;4.78;2.47;;;10.60;99.90;;;;;;5045673;28;20020;-49
2022/09/26 08:08:52;;;;;;;4.38;3.00;;;10.70;99.90;;;;;;5044103;28;20509;-48
2022/09/26 08:11:19;;;;;;;9.23;3.55;;;10.70;99.90;;;;;;5031478;28;20035;-49
2022/09/26 08:13:45;;;;;;;5.43;3.03;;;10.70;99.90;;;;;;5063432;28;20674;-49
2022/09/26 08:16:22;;;;;;;4.90;2.90;;;10.70;99.90;;;;;;5063459;28;20143;-49
2022/09/26 08:18:48;;;;;;;;;;;10.70;99.90;;;;;;5062866;28;20099;-54
2022/09/26 08:21:14;;;;;;;8.00;3.38;;;10.70;99.90;;;;;;5063083;28;19904;-49
2022/09/26 08:23:39;;;;;;;4.97;3.15;;;10.80;99.90;;;;;;5062408;28;20093;-51
2022/09/26 08:26:06;;;;;;;3.30;2.92;;;10.80;99.90;;;;;;5061969;28;20040;-49
2022/09/26 08:28:36;;;;;;;4.35;3.35;;;10.80;99.90;;;;;;5063204;28;20028;-50
2022/09/26 08:31:03;;;;;;;5.90;3.47;;;10.80;99.90;;;;;;5061623;28;20033;-52
2022/09/26 08:33:34;;;;;;;8.23;3.58;;;10.90;99.90;;;;;;5062688;28;20025;-50
2022/09/26 08:36:08;;;;;;;4.88;3.45;;;10.90;99.90;;;;;;5060214;28;20558;-50
2022/09/26 08:38:35;;;;;;;4.43;3.10;;;10.90;99.90;;;;;;5062961;28;20017;-50
2022/09/26 08:41:12;;;;;;;4.05;3.65;;;10.90;99.90;;;;;;5042969;28;20066;-50
2022/09/26 08:43:43;;;;;;;13.60;3.95;;;11.00;99.90;;;;;;5060027;28;20119;-49
2022/09/26 08:46:44;;;;;;;4.00;3.47;;;11.00;99.90;;;;;;5059923;28;20032;-48
2022/09/26 08:49:49;;;;;;;5.65;4.18;;;11.10;99.90;;;;;;5061633;28;20094;-49
2022/09/26 08:52:38;;;;;;;5.28;3.42;;;11.10;99.90;;;;;;5062130;28;20021;-50
2022/09/26 08:55:13;;;;;;;8.48;4.03;;;11.20;99.90;;;;;;5043627;28;20029;-49
2022/09/26 08:57:46;;;;;;;7.93;4.18;;;11.30;99.90;;;;;;5045097;28;20076;-49
2022/09/26 09:00:32;;;;;;;9.02;4.47;;;11.40;99.90;;;;;;5061734;28;20025;-48
2022/09/26 09:03:23;;;;;;;10.77;4.30;;;11.50;99.90;;;;;;5060930;28;20035;-50
2022/09/26 09:06:00;;;;;;;5.00;4.05;;;11.60;99.90;;;;;;5064662;28;20457;-49
2022/09/26 09:08:37;;;;;;;8.07;4.55;;;11.70;99.90;;;;;;5056802;28;20021;-49
2022/09/26 09:11:28;;;;;;;7.22;4.20;;;11.70;99.90;;;;;;5065672;28;20028;-49
2022/09/26 09:14:08;;;;;;;7.57;4.97;;;11.80;99.90;;;;;;5056860;28;20031;-51
2022/09/26 09:17:04;;;;;;;5.25;4.65;;;11.90;99.90;;;;;;5063195;28;20029;-52
2022/09/26 09:19:57;;;;;;;5.22;3.75;;;12.00;99.90;;;;;;5052736;28;20039;-50
2022/09/26 09:22:47;;;;;;;5.00;4.22;;;12.00;99.90;;;;;;5035591;28;20012;-50
2022/09/26 09:25:19;;;;;;;8.45;5.20;;;12.00;99.90;;;;;;5058379;28;20017;-51
2022/09/26 09:27:54;;;;;;;7.65;5.30;;;12.00;99.90;;;;;;5064873;28;20027;-50
2022/09/26 09:30:27;;;;;;;6.15;4.65;;;12.00;99.90;;;;;;5054262;28;20095;-53
2022/09/26 09:33:05;;;;;;;9.35;5.65;;;12.00;99.90;;;;;;5066142;28;20036;-49
2022/09/26 09:35:33;;;;;;;6.55;4.70;;;12.00;99.90;;;;;;5058370;28;20363;-51
2022/09/26 09:38:00;;;;;;;5.78;5.07;;;12.00;99.90;;;;;;5059724;28;20569;-49
2022/09/26 09:40:32;;;;;;;6.72;4.47;;;12.00;99.90;;;;;;5062523;28;20020;-52
2022/09/26 09:43:09;;;;;;;6.28;5.35;;;12.00;99.90;;;;;;5061024;28;20043;-49
2022/09/26 09:45:48;;;;;;;11.10;5.45;;;12.00;99.90;;;;;;5061492;28;20020;-49
2022/09/26 09:48:14;;;;;;;10.18;5.68;;;12.10;99.90;;;;;;5058075;28;20437;-49
2022/09/26 09:50:58;;;;;;;7.80;5.40;;;12.10;99.90;;;;;;5063396;28;20029;-54
2022/09/26 09:53:49;;;;;;;7.13;4.97;;;12.20;99.90;;;;;;5054944;28;20304;-51
2022/09/26 09:56:44;;;;;;;6.10;4.72;;;12.30;99.90;;;;;;5040525;28;20017;-50
2022/09/26 09:59:35;;;;;;;6.47;5.15;;;12.40;99.90;;;;;;5060424;28;20020;-50
2022/09/26 10:02:19;;;;;;;6.88;4.45;;;12.50;99.90;;;;;;5047909;28;20047;-50
2022/09/26 10:05:01;;;;;;;6.93;4.88;;;12.50;99.90;;;;;;5057793;28;20021;-50
2022/09/26 10:07:26;;;;;;;6.60;4.35;;;12.60;99.90;;;;;;5049975;28;20020;-51
2022/09/26 10:09:52;;;;;;;5.68;4.03;;;12.70;99.90;;;;;;5041608;28;20475;-49
2022/09/26 10:12:22;;;;;;;16.77;3.95;;;12.70;99.90;;;;;;5061329;28;20070;-50
2022/09/26 10:15:05;;;;;;;5.68;3.55;;;12.70;99.90;;;;;;5059923;28;20040;-49
2022/09/26 10:17:31;;;;;;;9.98;3.95;;;12.80;99.90;;;;;;5054258;28;20032;-50
2022/09/26 10:19:56;;;;;;;4.80;2.92;;;12.70;99.90;;;;;;5060851;28;20070;-50
2022/09/26 10:22:34;;;;;;;5.82;3.28;;;12.70;99.90;;;;;;5060976;28;20052;-49
2022/09/26 10:25:04;;;;;;;2.58;2.22;;;12.80;99.90;;;;;;5059877;28;20506;-52
2022/09/26 10:27:35;;;;;;;4.72;3.03;;;12.80;99.90;;;;;;5061405;28;20028;-52
2022/09/26 10:30:06;;;;;;;4.43;2.20;;;12.90;99.90;;;;;;5059365;28;20050;-49
2022/09/26 10:32:44;;;;;;;4.13;2.55;;;12.90;99.90;;;;;;5062358;28;20023;-53
2022/09/26 10:35:20;;;;;;;3.25;2.25;;;12.90;99.90;;;;;;5058616;28;20489;-48
2022/09/26 10:38:18;;;;;;;5.45;2.85;;;13.00;99.90;;;;;;5065005;28;20024;-52
2022/09/26 10:41:02;;;;;;;3.20;2.58;;;12.90;99.90;;;;;;5051267;28;20108;-49
2022/09/26 10:43:33;;;;;;;5.47;2.70;;;12.90;99.90;;;;;;5065193;28;20020;-49
2022/09/26 10:46:03;;;;;;;2.80;2.38;;;12.90;99.90;;;;;;5046001;28;20498;-49
2022/09/26 10:48:48;;;;;;;4.70;2.30;;;12.90;99.90;;;;;;5061864;28;20032;-49
2022/09/26 10:51:41;;;;;;;2.55;2.15;;;12.90;99.90;;;;;;5050083;28;20457;-50
2022/09/26 10:54:10;;;;;;;3.85;2.65;;;12.90;99.90;;;;;;5062955;28;20483;-53
2022/09/26 10:56:49;;;;;;;5.90;3.28;;;13.00;99.90;;;;;;5065547;28;20051;-49
2022/09/26 10:59:17;;;;;;;4.03;3.08;;;12.90;99.90;;;;;;5051133;28;20486;-48
2022/09/26 11:01:57;;;;;;;4.05;2.88;;;12.90;99.90;;;;;;5047083;28;20155;-49
2022/09/26 11:07:23;;;;;;;3.17;2.70;;;12.90;99.90;;;;;;5062847;28;20028;-50
2022/09/26 11:09:56;;;;;;;4.18;3.42;;;12.90;99.90;;;;;;5063748;28;20491;-51
2022/09/26 11:12:33;;;;;;;5.68;3.38;;;13.00;99.90;;;;;;5064311;28;20028;-49
2022/09/26 11:15:04;;;;;;;4.70;2.58;;;13.00;99.90;;;;;;5063090;28;20032;-51
2022/09/26 11:17:47;;;;;;;3.42;2.72;;;13.00;99.90;;;;;;5066447;28;20024;-50
2022/09/26 11:20:51;;;;;;;4.43;2.72;;;13.00;99.90;;;;;;5061049;28;20099;-56
2022/09/26 11:23:26;;;;;;;7.47;2.85;;;13.10;99.90;;;;;;5048818;28;20028;-52
2022/09/26 11:26:15;;;;;;;5.53;2.47;;;13.20;99.90;;;;;;5062553;28;20056;-49
2022/09/26 11:28:45;;;;;;;5.88;2.58;;;13.20;99.90;;;;;;5064204;28;20577;-50
2022/09/26 11:31:27;;;;;;;3.50;2.22;;;13.20;99.90;;;;;;5062563;28;20039;-52
2022/09/26 11:34:02;;;;;;;2.92;2.20;;;13.20;99.90;;;;;;5063419;28;20617;-48
2022/09/26 11:37:02;;;;;;;3.65;2.15;;;13.20;99.90;;;;;;5060644;28;20017;-50
2022/09/26 11:39:49;;;;;;;3.35;2.38;;;13.10;99.90;;;;;;5056058;28;20017;-52
2022/09/26 11:42:40;;;;;;;3.22;2.20;;;13.00;99.90;;;;;;5049555;28;20506;-49
2022/09/26 11:45:22;;;;;;;4.38;2.50;;;12.90;99.90;;;;;;5063422;28;20017;-49
2022/09/26 11:47:59;;;;;;;3.95;2.47;;;12.80;99.90;;;;;;5063683;28;20031;-53
2022/09/26 11:50:43;;;;;;;3.80;2.97;;;12.80;99.90;;;;;;5056580;28;20382;-49
2022/09/26 11:53:52;;;;;;;4.63;2.60;;;12.70;99.90;;;;;;5060252;28;20780;-50
2022/09/26 11:57:02;;;;;;;5.82;2.90;;;12.70;99.90;;;;;;5053039;28;20028;-51
2022/09/26 11:59:57;;;;;;;6.35;3.00;;;12.60;99.90;;;;;;5052143;28;20021;-49
2022/09/26 12:02:34;;;;;;;8.70;3.45;;;12.70;99.90;;;;;;5028002;28;20029;-52
2022/09/26 12:05:23;;;;;;;7.70;3.60;;;12.70;99.90;;;;;;5062070;28;20021;-51
2022/09/26 12:08:39;;;;;;;5.65;2.60;;;12.70;99.90;;;;;;5066417;28;20025;-53
2022/09/26 12:11:32;;;;;;;4.80;3.17;;;12.60;99.90;;;;;;5034888;28;20037;-51
2022/09/26 12:14:24;;;;;;;3.85;2.90;;;12.60;99.90;;;;;;5061695;28;20216;-51
2022/09/26 12:16:57;;;;;;;5.38;2.38;;;12.50;99.90;;;;;;5063003;28;20479;-50
2022/09/26 12:19:50;;;;;;;3.72;2.90;;;12.50;99.90;;;;;;5063618;28;20056;-49
2022/09/26 12:22:37;;;;;;;4.07;2.85;;;12.40;99.90;;;;;;5056430;28;20025;-48
2022/09/26 12:25:09;;;;;;;3.78;2.90;;;12.30;99.90;;;;;;5066230;28;20038;-52
2022/09/26 12:27:48;;;;;;;2.83;2.60;;;12.30;99.90;;;;;;5059572;28;20509;-49
2022/09/26 12:30:23;;;;;;;8.40;3.00;;;12.30;99.90;;;;;;5066916;28;20473;-49
2022/09/26 12:32:58;;;;;;;5.30;3.42;;;12.30;99.90;;;;;;5059404;28;20098;-52
2022/09/26 12:35:49;;;;;;;5.97;3.37;;;12.30;99.90;;;;;;5063210;28;20067;-49
2022/09/26 12:38:31;;;;;;;3.05;2.80;;;12.20;99.90;;;;;;5050494;28;20108;-49
2022/09/26 12:41:11;;;;;;;3.58;3.13;;;12.20;99.90;;;;;;5060949;28;20311;-50
2022/09/26 12:43:53;;;;;;;5.18;4.03;;;12.20;99.90;;;;;;5060680;28;20040;-49
2022/09/26 12:46:29;;;;;;;4.95;3.10;;;12.20;99.90;;;;;;5054506;28;20020;-49
2022/09/26 12:49:40;;;;;;;5.18;3.05;;;12.20;99.90;;;;;;5060214;28;20635;-49
2022/09/26 12:52:26;;;;;;;6.57;3.30;;;12.20;99.90;;;;;;5060144;28;20028;-50
2022/09/26 12:55:13;;;;;;;3.53;3.00;;;12.20;99.90;;;;;;5062343;28;20025;-49
2022/09/26 12:57:44;;;;;;;;;;;12.30;99.90;;;;;;5063096;28;20063;-49
2022/09/26 13:00:17;;;;;;;7.70;2.97;;;12.30;99.90;;;;;;5060714;28;20282;-50
2022/09/26 13:03:08;;;;;;;4.78;3.33;;;12.40;99.90;;;;;;5062202;28;20439;-50
2022/09/26 13:05:49;;;;;;;4.75;2.92;;;12.40;99.90;;;;;;5058365;28;20020;-50
2022/09/26 13:08:45;;;;;;;6.60;2.78;;;12.40;99.90;;;;;;5054006;28;20111;-49
2022/09/26 13:11:29;;;;;;;3.70;3.15;;;12.40;99.90;;;;;;5066908;28;20029;-50
2022/09/26 13:14:13;;;;;;;4.63;2.83;;;12.30;99.90;;;;;;5059220;28;20170;-49
2022/09/26 13:17:13;;;;;;;3.63;2.70;;;12.30;99.90;;;;;;5062101;28;20391;-49
2022/09/26 13:20:00;;;;;;;3.88;3.47;;;12.30;99.90;;;;;;5056671;28;20023;-52
2022/09/26 13:22:33;;;;;;;4.68;2.88;;;12.30;99.90;;;;;;5062493;28;20016;-50
2022/09/26 13:25:18;;;;;;;2.80;2.60;;;12.30;99.90;;;;;;5066567;22;20063;-48
2022/09/26 13:28:13;;;;;;;6.30;3.55;;;12.30;99.90;;;;;;5041710;28;20078;-45
2022/09/26 13:30:45;;;;;;;2.80;2.50;;;12.30;99.90;;;;;;5044868;28;20017;-45
2022/09/26 13:33:32;;;;;;;5.32;3.00;;;12.30;99.90;;;;;;5049867;28;20036;-46
2022/09/26 13:36:00;;;;;;;3.53;3.05;;;12.30;99.90;;;;;;5043882;28;20030;-50
2022/09/26 13:38:39;;;;;;;3.97;3.05;;;12.40;99.90;;;;;;5043249;28;20087;-46